createdAt,value
2022-10-11T00:00:40.764Z,81.93
2022-10-11T00:01:40.778Z,82.03
2022-10-11T00:02:40.746Z,81.93
2022-10-11T00:03:40.756Z,81.01
2022-10-11T00:04:40.736Z,81.72
2022-10-11T00:05:40.720Z,82.68
2022-10-11T00:06:40.721Z,82.51
2022-10-11T00:07:40.721Z,82.68
2022-10-11T00:08:40.710Z,82.82
2022-10-11T00:09:40.697Z,83.23
2022-10-11T00:10:40.696Z,83.44
2022-10-11T00:11:40.684Z,83.54
2022-10-11T00:12:40.676Z,83.44
2022-10-11T00:13:40.692Z,83.33
2022-10-11T00:14:40.664Z,83.98
2022-10-11T00:15:40.657Z,84.05
2022-10-11T00:16:40.656Z,83.95
2022-10-11T00:17:40.647Z,85.22
2022-10-11T00:18:40.655Z,85.31
2022-10-11T00:19:40.631Z,85.52
2022-10-11T00:20:40.631Z,85.31
2022-10-11T00:21:40.615Z,85.77
2022-10-11T00:22:40.619Z,85.15
2022-10-11T00:23:40.610Z,84.84
2022-10-11T00:24:40.608Z,84.95
2022-10-11T00:25:40.595Z,85.25
2022-10-11T00:26:45.698Z,85.46
2022-10-11T00:27:42.584Z,85.77
2022-10-11T00:28:40.632Z,85.36
2022-10-11T00:29:40.573Z,85.25
2022-10-11T00:30:40.564Z,84.68
2022-10-11T00:31:40.551Z,84.06
2022-10-11T00:32:40.549Z,84.58
2022-10-11T00:33:40.542Z,84.68
2022-10-11T00:34:40.544Z,84.88
2022-10-11T00:35:40.534Z,84.88
2022-10-11T00:36:40.511Z,84.82
2022-10-11T00:37:40.527Z,84.78
2022-10-11T00:38:40.510Z,85.23
2022-10-11T00:39:40.497Z,85.33
2022-10-11T00:40:40.524Z,85.44
2022-10-11T00:41:40.488Z,85.33
2022-10-11T00:42:40.480Z,85.74
2022-10-11T00:43:40.465Z,85.95
2022-10-11T00:44:40.472Z,86.87
2022-10-11T00:45:40.478Z,86.81
2022-10-11T00:46:40.466Z,87.43
2022-10-11T00:47:40.445Z,86.50
2022-10-11T00:48:40.437Z,87.05
2022-10-11T00:49:40.428Z,87.77
2022-10-11T00:50:40.441Z,88.39
2022-10-11T00:51:40.428Z,88.29
2022-10-11T00:52:40.405Z,88.45
2022-10-11T00:53:40.405Z,88.29
2022-10-11T00:54:40.396Z,87.98
2022-10-11T00:55:40.400Z,89.01
2022-10-11T00:56:40.385Z,88.70
2022-10-11T00:57:40.381Z,88.90
2022-10-11T00:58:40.376Z,88.70
2022-10-11T00:59:40.357Z,88.80
2022-10-11T01:00:40.371Z,88.49
2022-10-11T01:01:40.401Z,88.86
2022-10-11T01:02:40.332Z,88.80
2022-10-11T01:03:40.334Z,88.39
2022-10-11T01:04:40.335Z,87.88
2022-10-11T01:05:40.364Z,87.37
2022-10-11T01:06:40.315Z,86.24
2022-10-11T01:07:40.309Z,86.85
2022-10-11T01:08:40.300Z,85.99
2022-10-11T01:09:40.294Z,86.54
2022-10-11T01:10:40.288Z,86.75
2022-10-11T01:11:40.316Z,86.24
2022-10-11T01:12:40.277Z,86.33
2022-10-11T01:13:40.264Z,86.95
2022-10-11T01:14:40.262Z,87.10
2022-10-11T01:15:40.249Z,86.79
2022-10-11T01:16:40.255Z,86.89
2022-10-11T01:17:40.244Z,87.61
2022-10-11T01:18:40.229Z,86.99
2022-10-11T01:19:40.229Z,87.30
2022-10-11T01:20:40.221Z,87.20
2022-10-11T01:21:40.245Z,86.38
2022-10-11T01:22:40.209Z,86.79
2022-10-11T01:23:40.197Z,86.38
2022-10-11T01:24:40.200Z,87.10
2022-10-11T01:25:40.180Z,87.10
2022-10-11T01:26:40.172Z,87.34
2022-10-11T01:27:40.194Z,87.55
2022-10-11T01:28:40.403Z,88.37
2022-10-11T01:29:40.176Z,88.68
2022-10-11T01:30:40.155Z,88.47
2022-10-11T01:31:40.144Z,88.78
2022-10-11T01:32:40.208Z,88.06
2022-10-11T01:33:40.136Z,88.51
2022-10-11T01:34:40.128Z,88.62
2022-10-11T01:35:40.134Z,88.06
2022-10-11T01:36:40.121Z,88.17
2022-10-11T01:37:40.105Z,87.79
2022-10-11T01:38:40.104Z,88.62
2022-10-11T01:39:40.088Z,88.92
2022-10-11T01:40:40.082Z,88.92
2022-10-11T01:41:40.132Z,89.03
2022-10-11T01:42:40.060Z,88.92
2022-10-11T01:43:40.112Z,88.51
2022-10-11T01:44:40.069Z,88.82
2022-10-11T01:45:40.056Z,88.92
2022-10-11T01:46:40.706Z,88.10
2022-10-11T01:47:40.027Z,88.72
2022-10-11T01:48:40.049Z,88.00
2022-10-11T01:49:40.018Z,88.31
2022-10-11T01:50:40.008Z,88.31
2022-10-11T01:51:42.027Z,88.76
2022-10-11T01:52:40.997Z,91.06
2022-10-11T01:53:39.991Z,91.78
2022-10-11T01:55:07.416Z,91.27
2022-10-11T01:55:41.972Z,91.27
2022-10-11T01:56:39.980Z,91.17
2022-10-11T01:57:39.960Z,90.03
2022-10-11T01:58:39.944Z,89.77
2022-10-11T01:59:39.954Z,89.42
2022-10-11T02:00:39.937Z,89.46
2022-10-11T02:01:40.007Z,89.83
2022-10-11T02:02:39.933Z,89.67
2022-10-11T02:03:39.925Z,89.87
2022-10-11T02:04:39.944Z,90.28
2022-10-11T02:05:39.896Z,90.39
2022-10-11T02:06:39.907Z,90.39
2022-10-11T02:07:39.895Z,90.39
2022-10-11T02:08:39.883Z,90.28
2022-10-11T02:09:39.884Z,89.77
2022-10-11T02:10:40.019Z,89.67
2022-10-11T02:11:39.870Z,90.28
2022-10-11T02:12:39.878Z,90.28
2022-10-11T02:13:39.880Z,89.87
2022-10-11T02:14:39.920Z,90.12
2022-10-11T02:15:39.878Z,89.81
2022-10-11T02:16:39.852Z,89.50
2022-10-11T02:17:40.862Z,89.09
2022-10-11T02:18:39.852Z,89.19
2022-10-11T02:19:39.824Z,89.19
2022-10-11T02:20:39.803Z,89.29
2022-10-11T02:21:39.791Z,89.19
2022-10-11T02:22:39.820Z,89.44
2022-10-11T02:23:39.803Z,89.95
2022-10-11T02:24:40.776Z,89.95
2022-10-11T02:25:39.768Z,90.37
2022-10-11T02:26:39.767Z,92.22
2022-10-11T02:27:39.759Z,93.09
2022-10-11T02:28:39.997Z,93.09
2022-10-11T02:29:39.741Z,93.13
2022-10-11T02:30:39.733Z,93.54
2022-10-11T02:31:40.581Z,93.24
2022-10-11T02:32:39.737Z,92.93
2022-10-11T02:33:39.712Z,93.07
2022-10-11T02:34:39.709Z,92.93
2022-10-11T02:35:39.700Z,92.10
2022-10-11T02:36:39.693Z,91.79
2022-10-11T02:37:39.701Z,91.42
2022-10-11T02:38:39.683Z,91.63
2022-10-11T02:39:39.676Z,91.42
2022-10-11T02:40:39.678Z,91.52
2022-10-11T02:41:39.671Z,91.83
2022-10-11T02:42:39.656Z,91.94
2022-10-11T02:43:39.664Z,92.76
2022-10-11T02:44:39.681Z,93.07
2022-10-11T02:45:39.644Z,93.38
2022-10-11T02:46:39.638Z,94.56
2022-10-11T02:47:39.629Z,93.69
2022-10-11T02:48:39.621Z,94.10
2022-10-11T02:49:39.629Z,94.00
2022-10-11T02:50:39.605Z,94.10
2022-10-11T02:51:39.601Z,94.00
2022-10-11T02:52:39.594Z,93.59
2022-10-11T02:53:39.583Z,93.59
2022-10-11T02:54:39.576Z,92.76
2022-10-11T02:55:39.580Z,92.04
2022-10-11T02:56:39.597Z,92.14
2022-10-11T02:57:39.556Z,91.94
2022-10-11T02:58:39.560Z,92.04
2022-10-11T02:59:39.539Z,92.80
2022-10-11T03:00:39.553Z,92.25
2022-10-11T03:01:39.660Z,92.04
2022-10-11T03:02:39.532Z,92.55
2022-10-11T03:03:39.516Z,92.76
2022-10-11T03:04:39.508Z,92.66
2022-10-11T03:05:39.505Z,92.86
2022-10-11T03:06:39.514Z,92.76
2022-10-11T03:07:39.498Z,92.14
2022-10-11T03:08:39.491Z,92.08
2022-10-11T03:09:39.480Z,91.88
2022-10-11T03:10:39.476Z,92.40
2022-10-11T03:11:40.186Z,92.19
2022-10-11T03:12:39.474Z,92.80
2022-10-11T03:13:39.450Z,93.43
2022-10-11T03:14:39.451Z,93.98
2022-10-11T03:15:39.447Z,94.60
2022-10-11T03:16:39.435Z,94.71
2022-10-11T03:17:39.447Z,95.17
2022-10-11T03:18:39.418Z,95.83
2022-10-11T03:19:39.410Z,97.28
2022-10-11T03:20:39.402Z,96.66
2022-10-11T03:21:39.407Z,96.86
2022-10-11T03:22:39.397Z,96.86
2022-10-11T03:23:39.398Z,97.02
2022-10-11T03:24:39.398Z,96.66
2022-10-11T03:25:39.372Z,96.76
2022-10-11T03:26:39.370Z,97.38
2022-10-11T03:27:39.377Z,97.07
2022-10-11T03:28:39.392Z,97.17
2022-10-11T03:29:39.385Z,97.17
2022-10-11T03:30:39.350Z,96.82
2022-10-11T03:31:39.343Z,96.72
2022-10-11T03:32:39.331Z,96.14
2022-10-11T03:33:39.328Z,96.20
2022-10-11T03:34:39.318Z,96.72
2022-10-11T03:35:39.334Z,97.08
2022-10-11T03:36:39.317Z,96.61
2022-10-11T03:37:39.297Z,96.30
2022-10-11T03:38:39.298Z,95.74
2022-10-11T03:39:39.285Z,95.12
2022-10-11T03:40:39.328Z,94.60
2022-10-11T03:41:39.281Z,94.50
2022-10-11T03:42:39.266Z,94.40
2022-10-11T03:43:39.274Z,95.12
2022-10-11T03:44:39.251Z,95.68
2022-10-11T03:45:39.251Z,95.37
2022-10-11T03:46:39.242Z,95.06
2022-10-11T03:47:39.238Z,94.65
2022-10-11T03:48:39.243Z,94.65
2022-10-11T03:49:43.398Z,94.65
2022-10-11T03:50:39.210Z,94.85
2022-10-11T03:51:39.250Z,94.75
2022-10-11T03:52:39.207Z,94.54
2022-10-11T03:53:39.194Z,93.93
2022-10-11T03:54:39.194Z,94.03
2022-10-11T03:55:39.176Z,93.93
2022-10-11T03:56:39.181Z,93.93
2022-10-11T03:57:39.170Z,94.13
2022-10-11T03:58:39.166Z,93.51
2022-10-11T03:59:39.182Z,93.55
2022-10-11T04:00:39.157Z,93.24
2022-10-11T04:01:39.168Z,93.04
2022-10-11T04:02:39.456Z,92.63
2022-10-11T04:03:40.126Z,92.83
2022-10-11T04:04:39.128Z,92.63
2022-10-11T04:05:39.142Z,92.42
2022-10-11T04:06:39.113Z,92.00
2022-10-11T04:07:39.111Z,92.72
2022-10-11T04:08:39.104Z,93.08
2022-10-11T04:09:39.087Z,92.42
2022-10-11T04:10:39.112Z,91.90
2022-10-11T04:11:39.089Z,91.90
2022-10-11T04:12:39.110Z,92.21
2022-10-11T04:13:39.078Z,91.84
2022-10-11T04:14:39.089Z,92.05
2022-10-11T04:15:39.067Z,91.53
2022-10-11T04:16:39.070Z,91.67
2022-10-11T04:17:39.040Z,91.99
2022-10-11T04:18:39.031Z,91.78
2022-10-11T04:19:39.043Z,92.09
2022-10-11T04:20:39.024Z,92.40
2022-10-11T04:21:39.020Z,92.40
2022-10-11T04:22:39.005Z,92.50
2022-10-11T04:23:39.016Z,92.09
2022-10-11T04:24:38.996Z,93.58
2022-10-11T04:25:38.983Z,94.72
2022-10-11T04:26:38.985Z,95.34
2022-10-11T04:27:38.981Z,94.93
2022-10-11T04:28:39.014Z,95.03
2022-10-11T04:29:38.960Z,95.14
2022-10-11T04:30:38.955Z,94.82
2022-10-11T04:31:39.019Z,94.93
2022-10-11T04:32:39.945Z,94.93
2022-10-11T04:33:38.941Z,94.98
2022-10-11T04:34:38.937Z,95.24
2022-10-11T04:35:38.944Z,95.14
2022-10-11T04:36:38.924Z,94.57
2022-10-11T04:37:38.920Z,93.89
2022-10-11T04:38:38.925Z,93.48
2022-10-11T04:39:38.908Z,93.58
2022-10-11T04:40:38.904Z,93.48
2022-10-11T04:41:38.887Z,92.85
2022-10-11T04:42:38.884Z,92.76
2022-10-11T04:43:38.880Z,93.06
2022-10-11T04:44:38.868Z,93.16
2022-10-11T04:45:38.897Z,92.03
2022-10-11T04:46:38.856Z,92.65
2022-10-11T04:47:38.852Z,92.44
2022-10-11T04:48:38.850Z,92.28
2022-10-11T04:49:38.840Z,92.24
2022-10-11T04:50:38.832Z,92.28
2022-10-11T04:51:38.840Z,91.97
2022-10-11T04:52:38.807Z,92.49
2022-10-11T04:53:38.808Z,92.55
2022-10-11T04:54:38.799Z,92.80
2022-10-11T04:55:38.799Z,92.38
2022-10-11T04:56:38.807Z,92.59
2022-10-11T04:57:38.783Z,92.49
2022-10-11T04:58:38.788Z,92.49
2022-10-11T04:59:38.777Z,93.31
2022-10-11T05:00:38.762Z,92.59
2022-10-11T05:01:38.785Z,93.25
2022-10-11T05:02:38.764Z,92.74
2022-10-11T05:03:38.739Z,92.59
2022-10-11T05:04:38.732Z,92.80
2022-10-11T05:05:38.730Z,92.80
2022-10-11T05:06:38.712Z,92.38
2022-10-11T05:07:38.728Z,93.25
2022-10-11T05:08:38.708Z,93.41
2022-10-11T05:09:38.692Z,93.00
2022-10-11T05:10:38.687Z,93.10
2022-10-11T05:11:38.687Z,92.94
2022-10-11T05:12:38.692Z,92.90
2022-10-11T05:13:38.676Z,92.59
2022-10-11T05:14:38.668Z,92.69
2022-10-11T05:15:38.655Z,92.38
2022-10-11T05:16:38.653Z,92.43
2022-10-11T05:17:38.659Z,93.21
2022-10-11T05:18:38.632Z,92.49
2022-10-11T05:19:38.644Z,93.15
2022-10-11T05:20:38.629Z,92.80
2022-10-11T05:21:38.611Z,92.49
2022-10-11T05:22:38.613Z,92.80
2022-10-11T05:23:38.609Z,92.18
2022-10-11T05:24:38.597Z,92.43
2022-10-11T05:25:38.590Z,92.63
2022-10-11T05:26:38.588Z,93.04
2022-10-11T05:27:38.579Z,93.00
2022-10-11T05:28:38.610Z,93.46
2022-10-11T05:29:38.572Z,93.66
2022-10-11T05:30:38.628Z,94.87
2022-10-11T05:31:38.556Z,94.66
2022-10-11T05:32:38.550Z,94.24
2022-10-11T05:33:38.539Z,94.18
2022-10-11T05:34:38.528Z,93.93
2022-10-11T05:35:38.537Z,93.62
2022-10-11T05:36:38.521Z,93.21
2022-10-11T05:37:38.527Z,92.90
2022-10-11T05:38:38.503Z,93.21
2022-10-11T05:39:38.499Z,92.69
2022-10-11T05:40:38.496Z,92.85
2022-10-11T05:41:38.494Z,92.13
2022-10-11T05:42:38.483Z,92.24
2022-10-11T05:43:38.475Z,92.13
2022-10-11T05:44:38.468Z,92.13
2022-10-11T05:45:38.454Z,92.13
2022-10-11T05:46:38.472Z,92.24
2022-10-11T05:47:38.448Z,91.93
2022-10-11T05:48:38.444Z,92.09
2022-10-11T05:49:38.436Z,92.19
2022-10-11T05:50:38.428Z,91.67
2022-10-11T05:51:38.440Z,91.36
2022-10-11T05:52:38.412Z,91.57
2022-10-11T05:53:38.402Z,91.67
2022-10-11T05:54:38.403Z,91.63
2022-10-11T05:55:38.396Z,91.32
2022-10-11T05:56:38.391Z,90.50
2022-10-11T05:57:38.384Z,90.50
2022-10-11T05:58:38.406Z,90.60
2022-10-11T05:59:38.367Z,90.70
2022-10-11T06:00:38.369Z,90.80
2022-10-11T06:01:38.477Z,90.39
2022-10-11T06:02:38.355Z,90.19
2022-10-11T06:03:38.352Z,90.35
2022-10-11T06:04:38.326Z,89.62
2022-10-11T06:05:38.334Z,89.52
2022-10-11T06:06:38.323Z,89.73
2022-10-11T06:07:38.324Z,90.66
2022-10-11T06:08:38.316Z,91.38
2022-10-11T06:09:38.319Z,91.90
2022-10-11T06:10:38.302Z,93.41
2022-10-11T06:11:38.295Z,93.72
2022-10-11T06:12:38.276Z,93.51
2022-10-11T06:13:38.282Z,92.38
2022-10-11T06:14:38.287Z,92.33
2022-10-11T06:15:38.267Z,92.13
2022-10-11T06:16:38.260Z,91.77
2022-10-11T06:17:38.255Z,92.50
2022-10-11T06:18:38.240Z,92.50
2022-10-11T06:19:38.235Z,91.88
2022-10-11T06:20:38.252Z,91.32
2022-10-11T06:21:38.221Z,91.42
2022-10-11T06:22:38.211Z,91.42
2022-10-11T06:23:38.212Z,91.52
2022-10-11T06:24:38.194Z,91.28
2022-10-11T06:25:38.211Z,91.73
2022-10-11T06:26:38.191Z,91.69
2022-10-11T06:27:38.178Z,91.17
2022-10-11T06:28:38.268Z,90.49
2022-10-11T06:29:38.188Z,89.94
2022-10-11T06:30:38.160Z,89.52
2022-10-11T06:31:38.171Z,89.62
2022-10-11T06:32:38.155Z,89.94
2022-10-11T06:33:38.154Z,89.42
2022-10-11T06:34:38.139Z,89.52
2022-10-11T06:35:38.136Z,88.96
2022-10-11T06:36:38.148Z,89.17
2022-10-11T06:37:38.132Z,88.76
2022-10-11T06:38:43.819Z,88.56
2022-10-11T06:39:40.191Z,88.59
2022-10-11T06:40:38.107Z,88.35
2022-10-11T06:41:38.096Z,88.45
2022-10-11T06:42:38.125Z,88.10
2022-10-11T06:43:38.080Z,89.34
2022-10-11T06:44:38.103Z,88.31
2022-10-11T06:45:38.069Z,88.41
2022-10-11T06:46:38.067Z,88.62
2022-10-11T06:47:38.131Z,88.82
2022-10-11T06:48:38.072Z,88.92
2022-10-11T06:49:38.038Z,88.17
2022-10-11T06:50:58.435Z,87.85
2022-10-11T06:51:40.030Z,88.06
2022-10-11T06:52:38.033Z,88.57
2022-10-11T06:53:38.033Z,88.89
2022-10-11T06:54:42.506Z,88.64
2022-10-11T06:55:40.000Z,88.37
2022-10-11T06:56:37.998Z,88.23
2022-10-11T06:57:37.984Z,89.05
2022-10-11T06:58:37.986Z,89.15
2022-10-11T06:59:37.974Z,88.53
2022-10-11T07:00:38.198Z,88.53
2022-10-11T07:01:38.059Z,89.77
2022-10-11T07:02:37.952Z,90.39
2022-10-11T07:03:37.963Z,91.21
2022-10-11T07:04:37.958Z,91.27
2022-10-11T07:05:37.950Z,91.68
2022-10-11T07:06:37.962Z,92.05
2022-10-11T07:07:37.921Z,91.13
2022-10-11T07:08:37.923Z,90.88
2022-10-11T07:09:37.906Z,90.98
2022-10-11T07:10:37.918Z,90.94
2022-10-11T07:11:37.900Z,90.18
2022-10-11T07:12:37.911Z,90.44
2022-10-11T07:13:37.902Z,89.83
2022-10-11T07:14:37.899Z,88.72
2022-10-11T07:15:37.888Z,88.57
2022-10-11T07:16:37.937Z,85.60
2022-10-11T07:17:37.874Z,84.47
2022-10-11T07:18:37.850Z,85.05
2022-10-11T07:19:37.861Z,84.44
2022-10-11T07:20:37.880Z,84.03
2022-10-11T07:21:37.862Z,83.88
2022-10-11T07:22:37.850Z,83.70
2022-10-11T07:23:37.855Z,85.69
2022-10-11T07:24:37.842Z,85.90
2022-10-11T07:25:37.867Z,83.23
2022-10-11T07:26:38.302Z,74.58
2022-10-11T07:27:38.791Z,71.91
2022-10-11T07:28:37.834Z,69.09
2022-10-11T07:29:37.819Z,70.52
2022-10-11T07:30:37.771Z,71.06
2022-10-11T07:31:37.758Z,71.67
2022-10-11T07:32:37.761Z,72.82
2022-10-11T07:33:37.739Z,72.92
2022-10-11T07:34:37.743Z,72.17
2022-10-11T07:35:37.736Z,72.21
2022-10-11T07:36:37.739Z,70.62
2022-10-11T07:37:37.715Z,70.12
2022-10-11T07:38:37.727Z,68.13
2022-10-11T07:39:37.701Z,64.39
2022-10-11T07:40:37.695Z,65.31
2022-10-11T07:41:41.811Z,65.41
2022-10-11T07:42:37.702Z,66.59
2022-10-11T07:43:37.678Z,63.16
2022-10-11T07:44:37.662Z,61.17
2022-10-11T07:45:37.651Z,60.52
2022-10-11T07:46:37.656Z,61.59
2022-10-11T07:47:37.659Z,62.26
2022-10-11T07:48:37.666Z,62.62
2022-10-11T07:49:37.642Z,64.58
2022-10-11T07:50:37.630Z,65.75
2022-10-11T07:51:37.622Z,66.66
2022-10-11T07:52:37.619Z,68.22
2022-10-11T07:53:37.606Z,67.81
2022-10-11T07:54:37.611Z,68.01
2022-10-11T07:55:37.587Z,70.83
2022-10-11T07:56:37.585Z,70.69
2022-10-11T07:57:37.578Z,70.56
2022-10-11T07:58:37.575Z,69.00
2022-10-11T07:59:37.563Z,67.14
2022-10-11T08:00:37.596Z,63.81
2022-10-11T08:01:37.604Z,63.30
2022-10-11T08:02:38.537Z,65.62
2022-10-11T08:03:37.540Z,65.59
2022-10-11T08:04:37.576Z,65.28
2022-10-11T08:05:37.532Z,67.55
2022-10-11T08:06:37.551Z,68.91
2022-10-11T08:07:37.522Z,64.24
2022-10-11T08:08:37.517Z,65.22
2022-10-11T08:09:37.503Z,61.86
2022-10-11T08:10:37.504Z,56.34
2022-10-11T08:11:37.479Z,55.33
2022-10-11T08:12:37.504Z,54.83
2022-10-11T08:13:37.487Z,56.66
2022-10-11T08:14:37.461Z,56.74
2022-10-11T08:15:37.460Z,57.03
2022-10-11T08:16:37.456Z,56.89
2022-10-11T08:17:37.480Z,51.34
2022-10-11T08:18:37.457Z,51.29
2022-10-11T08:19:37.432Z,47.58
2022-10-11T08:20:37.427Z,48.90
2022-10-11T08:21:37.425Z,48.90
2022-10-11T08:22:37.426Z,49.80
2022-10-11T08:23:37.414Z,48.40
2022-10-11T08:24:38.428Z,49.48
2022-10-11T08:25:38.389Z,47.48
2022-10-11T08:26:37.383Z,47.71
2022-10-11T08:27:37.386Z,48.65
2022-10-11T08:28:37.409Z,48.60
2022-10-11T08:29:37.365Z,48.74
2022-10-11T08:30:37.367Z,50.31
2022-10-11T08:31:37.370Z,50.36
2022-10-11T08:32:37.356Z,51.74
2022-10-11T08:33:37.337Z,52.67
2022-10-11T08:34:37.337Z,53.90
2022-10-11T08:35:37.318Z,54.30
2022-10-11T08:36:37.322Z,53.80
2022-10-11T08:37:37.318Z,55.83
2022-10-11T08:38:37.294Z,55.00
2022-10-11T08:39:37.294Z,55.81
2022-10-11T08:40:37.299Z,54.93
2022-10-11T08:41:37.333Z,54.96
2022-10-11T08:42:37.275Z,55.79
2022-10-11T08:43:37.267Z,55.71
2022-10-11T08:45:05.392Z,55.94
2022-10-11T08:45:39.264Z,57.68
2022-10-11T08:46:37.242Z,58.22
2022-10-11T08:47:37.268Z,58.25
2022-10-11T08:48:37.245Z,58.75
2022-10-11T08:49:37.252Z,58.45
2022-10-11T08:50:37.237Z,59.18
2022-10-11T08:51:37.224Z,59.99
2022-10-11T08:52:37.258Z,59.71
2022-10-11T08:53:37.217Z,59.71
2022-10-11T08:54:37.225Z,60.02
2022-10-11T08:55:37.184Z,59.81
2022-10-11T08:56:37.185Z,60.12
2022-10-11T08:57:37.180Z,60.25
2022-10-11T08:58:37.184Z,60.48
2022-10-11T08:59:37.185Z,61.19
2022-10-11T09:00:37.173Z,61.59
2022-10-11T09:01:37.379Z,61.19
2022-10-11T09:03:03.090Z,60.78
2022-10-11T09:03:39.198Z,60.91
2022-10-11T09:04:37.152Z,61.32
2022-10-11T09:05:37.133Z,61.72
2022-10-11T09:06:37.127Z,61.62
2022-10-11T09:07:37.198Z,61.82
2022-10-11T09:08:37.101Z,62.19
2022-10-11T09:09:38.104Z,62.30
2022-10-11T09:10:37.104Z,61.66
2022-10-11T09:11:37.082Z,60.85
2022-10-11T09:12:40.675Z,60.65
2022-10-11T09:13:38.060Z,59.71
2022-10-11T09:14:37.062Z,59.91
2022-10-11T09:15:37.053Z,61.03
2022-10-11T09:16:37.059Z,59.74
2022-10-11T09:17:37.068Z,61.23
2022-10-11T09:18:37.043Z,60.72
2022-10-11T09:19:37.036Z,59.71
2022-10-11T09:20:37.024Z,59.71
2022-10-11T09:21:37.019Z,60.02
2022-10-11T09:22:37.041Z,60.05
2022-10-11T09:23:37.035Z,59.97
2022-10-11T09:24:37.007Z,61.62
2022-10-11T09:25:36.988Z,61.92
2022-10-11T09:26:37.048Z,62.56
2022-10-11T09:28:01.116Z,63.27
2022-10-11T09:28:39.031Z,63.27
2022-10-11T09:29:36.964Z,63.17
2022-10-11T09:30:36.958Z,63.57
2022-10-11T09:31:36.965Z,63.27
2022-10-11T09:32:36.941Z,63.70
2022-10-11T09:33:36.960Z,65.12
2022-10-11T09:34:36.949Z,65.86
2022-10-11T09:35:36.964Z,64.75
2022-10-11T09:36:36.922Z,65.76
2022-10-11T09:37:36.925Z,64.92
2022-10-11T09:38:36.921Z,63.87
2022-10-11T09:39:36.907Z,62.35
2022-10-11T09:40:36.900Z,62.33
2022-10-11T09:41:36.884Z,62.53
2022-10-11T09:42:36.884Z,61.62
2022-10-11T09:43:36.888Z,61.99
2022-10-11T09:44:36.873Z,61.39
2022-10-11T09:45:36.864Z,63.07
2022-10-11T09:46:36.855Z,63.47
2022-10-11T09:47:36.852Z,63.75
2022-10-11T09:48:36.840Z,63.87
2022-10-11T09:49:36.843Z,59.04
2022-10-11T09:50:36.832Z,57.56
2022-10-11T09:51:36.813Z,56.98
2022-10-11T09:52:36.812Z,58.62
2022-10-11T09:53:36.820Z,58.14
2022-10-11T09:54:36.820Z,58.37
2022-10-11T09:55:36.798Z,58.98
2022-10-11T09:56:36.804Z,59.84
2022-10-11T09:57:36.792Z,61.95
2022-10-11T09:58:36.812Z,64.01
2022-10-11T09:59:36.791Z,64.31
2022-10-11T10:00:36.768Z,62.84
2022-10-11T10:01:36.797Z,62.12
2022-10-11T10:02:37.760Z,63.27
2022-10-11T10:03:36.771Z,63.81
2022-10-11T10:04:52.265Z,60.72
2022-10-11T10:05:37.751Z,60.25
2022-10-11T10:06:36.720Z,59.08
2022-10-11T10:07:36.741Z,52.82
2022-10-11T10:08:36.721Z,50.89
2022-10-11T10:09:36.708Z,48.84
2022-10-11T10:10:36.710Z,48.64
2022-10-11T10:11:36.698Z,49.46
2022-10-11T10:12:36.686Z,49.14
2022-10-11T10:13:36.681Z,50.24
2022-10-11T10:14:36.672Z,47.69
2022-10-11T10:15:36.684Z,47.15
2022-10-11T10:16:36.653Z,46.20
2022-10-11T10:17:36.650Z,45.43
2022-10-11T10:18:36.646Z,47.56
2022-10-11T10:19:38.924Z,44.48
2022-10-11T10:20:37.651Z,43.02
2022-10-11T10:21:36.627Z,42.53
2022-10-11T10:22:36.619Z,45.03
2022-10-11T10:23:36.619Z,43.48
2022-10-11T10:24:36.604Z,41.81
2022-10-11T10:25:40.845Z,38.59
2022-10-11T10:26:37.600Z,38.34
2022-10-11T10:27:36.589Z,36.00
2022-10-11T10:28:36.654Z,35.47
2022-10-11T10:29:36.603Z,34.46
2022-10-11T10:30:36.644Z,31.94
2022-10-11T10:31:54.961Z,32.67
2022-10-11T10:32:38.561Z,34.82
2022-10-11T10:33:36.551Z,34.01
2022-10-11T10:34:36.552Z,34.85
2022-10-11T10:35:36.567Z,32.28
2022-10-11T10:36:36.537Z,31.33
2022-10-11T10:37:36.538Z,32.36
2022-10-11T10:38:36.527Z,32.39
2022-10-11T10:39:36.531Z,32.82
2022-10-11T10:40:36.555Z,33.25
2022-10-11T10:41:36.519Z,34.06
2022-10-11T10:42:36.520Z,34.31
2022-10-11T10:43:36.519Z,35.44
2022-10-11T10:44:36.495Z,36.58
2022-10-11T10:45:36.500Z,36.71
2022-10-11T10:46:36.487Z,38.20
2022-10-11T10:47:36.463Z,37.75
2022-10-11T10:49:11.719Z,38.59
2022-10-11T10:49:54.979Z,36.31
2022-10-11T10:50:38.451Z,36.35
2022-10-11T10:51:36.486Z,35.95
2022-10-11T10:52:36.444Z,36.56
2022-10-11T10:53:36.437Z,37.49
2022-10-11T10:54:36.436Z,36.25
2022-10-11T10:55:36.564Z,33.97
2022-10-11T10:56:36.485Z,34.12
2022-10-11T10:57:36.417Z,36.69
2022-10-11T10:58:36.491Z,36.27
2022-10-11T10:59:36.403Z,34.88
2022-10-11T11:00:36.409Z,35.21
2022-10-11T11:01:36.451Z,35.04
2022-10-11T11:02:40.869Z,36.07
2022-10-11T11:03:38.397Z,38.28
2022-10-11T11:04:36.379Z,40.16
2022-10-11T11:05:36.404Z,42.46
2022-10-11T11:06:36.748Z,42.65
2022-10-11T11:07:36.415Z,43.65
2022-10-11T11:08:36.359Z,43.35
2022-10-11T11:09:36.367Z,43.27
2022-10-11T11:10:36.376Z,42.23
2022-10-11T11:11:36.381Z,40.38
2022-10-11T11:12:36.359Z,40.06
2022-10-11T11:13:36.328Z,38.28
2022-10-11T11:14:36.328Z,40.40
2022-10-11T11:15:38.158Z,40.64
2022-10-11T11:16:37.345Z,40.04
2022-10-11T11:17:36.308Z,40.14
2022-10-11T11:18:36.308Z,40.86
2022-10-11T11:19:36.324Z,39.03
2022-10-11T11:20:36.291Z,39.31
2022-10-11T11:21:41.248Z,40.70
2022-10-11T11:22:38.281Z,39.94
2022-10-11T11:23:36.311Z,40.46
2022-10-11T11:24:36.259Z,42.21
2022-10-11T11:25:36.283Z,42.76
2022-10-11T11:26:37.810Z,45.09
2022-10-11T11:27:36.248Z,45.42
2022-10-11T11:28:36.296Z,45.62
2022-10-11T11:29:36.307Z,44.87
2022-10-11T11:30:36.241Z,44.51
2022-10-11T11:31:36.248Z,41.97
2022-10-11T11:32:36.232Z,41.96
2022-10-11T11:33:36.230Z,41.83
2022-10-11T11:34:36.205Z,41.30
2022-10-11T11:35:36.202Z,39.80
2022-10-11T11:36:36.208Z,38.37
2022-10-11T11:37:36.193Z,39.35
2022-10-11T11:38:36.204Z,38.02
2022-10-11T11:39:36.248Z,37.69
2022-10-11T11:40:36.220Z,36.36
2022-10-11T11:41:36.220Z,37.62
2022-10-11T11:42:36.172Z,35.66
2022-10-11T11:43:36.194Z,33.92
2022-10-11T11:44:36.165Z,34.08
2022-10-11T11:45:36.178Z,32.67
2022-10-11T11:46:36.244Z,30.77
2022-10-11T11:47:36.128Z,30.69
2022-10-11T11:48:36.127Z,31.29
2022-10-11T11:49:36.187Z,36.16
2022-10-11T11:50:37.149Z,36.23
2022-10-11T11:51:36.781Z,38.32
2022-10-11T11:52:36.152Z,38.09
2022-10-11T11:53:36.116Z,37.00
2022-10-11T11:54:36.244Z,35.93
2022-10-11T11:55:36.126Z,32.80
2022-10-11T11:56:36.100Z,31.48
2022-10-11T11:57:36.137Z,31.16
2022-10-11T11:58:36.097Z,30.35
2022-10-11T11:59:36.104Z,30.30
2022-10-11T12:00:36.097Z,30.39
2022-10-11T12:01:36.129Z,29.08
2022-10-11T12:02:36.047Z,28.77
2022-10-11T12:03:41.279Z,27.19
2022-10-11T12:04:38.052Z,25.54
2022-10-11T12:05:36.096Z,27.21
2022-10-11T12:06:40.317Z,27.75
2022-10-11T12:07:38.026Z,29.05
2022-10-11T12:08:36.059Z,28.20
2022-10-11T12:09:36.036Z,29.39
2022-10-11T12:10:36.038Z,28.40
2022-10-11T12:11:36.001Z,29.00
2022-10-11T12:12:35.997Z,30.17
2022-10-11T12:13:36.000Z,29.87
2022-10-11T12:14:36.000Z,29.58
2022-10-11T12:15:35.968Z,29.47
2022-10-11T12:16:35.972Z,29.34
2022-10-11T12:17:35.971Z,28.33
2022-10-11T12:18:39.350Z,27.52
2022-10-11T12:19:37.978Z,28.01
2022-10-11T12:20:35.967Z,26.53
2022-10-11T12:21:35.988Z,27.20
2022-10-11T12:22:35.945Z,25.12
2022-10-11T12:23:35.940Z,26.51
2022-10-11T12:24:35.932Z,25.65
2022-10-11T12:25:35.929Z,26.53
2022-10-11T12:26:35.929Z,26.51
2022-10-11T12:27:35.937Z,25.42
2022-10-11T12:28:35.976Z,25.60
2022-10-11T12:29:35.923Z,24.51
2022-10-11T12:30:36.219Z,23.54
2022-10-11T12:31:35.915Z,24.62
2022-10-11T12:32:35.897Z,25.21
2022-10-11T12:33:35.892Z,24.33
2022-10-11T12:34:37.367Z,24.33
2022-10-11T12:35:35.887Z,25.12
2022-10-11T12:36:35.876Z,23.75
2022-10-11T12:37:35.876Z,22.59
2022-10-11T12:38:35.868Z,24.07
2022-10-11T12:39:35.888Z,24.30
2022-10-11T12:40:35.891Z,25.28
2022-10-11T12:41:35.847Z,23.52
2022-10-11T12:42:35.859Z,24.29
2022-10-11T12:43:35.835Z,22.81
2022-10-11T12:44:35.841Z,23.28
2022-10-11T12:45:35.883Z,22.58
2022-10-11T12:46:35.825Z,22.47
2022-10-11T12:47:35.827Z,23.14
2022-10-11T12:48:40.636Z,23.24
2022-10-11T12:49:37.807Z,22.76
2022-10-11T12:50:35.817Z,22.95
2022-10-11T12:51:35.803Z,21.97
2022-10-11T12:52:35.843Z,22.98